Time;durP1;ratioP1;P1;durP2;ratioP2;P2;SDS_P1;SDS_P2;PMS_P1;PMS_P2;Temp;Humidity;BMP_temperature;BMP_pressure;BME280_temperature;BME280_humidity;BME280_pressure;Samples;Min_cycle;Max_cycle;Signal;HPM_P1;HPM_P2
2022/03/16 00:01:08;;;;;;;39.13;35.90;;;9.10;93.80;;;;;;5092590;28;20214;-72
2022/03/16 00:03:36;;;;;;;38.92;35.53;;;9.10;94.20;;;;;;5092916;28;20195;-72
2022/03/16 00:06:03;;;;;;;39.50;36.20;;;9.10;93.80;;;;;;5092785;28;20202;-72
2022/03/16 00:08:31;;;;;;;40.97;37.47;;;9.10;93.40;;;;;;5092652;28;20232;-72
2022/03/16 00:10:58;;;;;;;40.70;37.08;;;9.10;93.60;;;;;;5092545;28;20689;-72
2022/03/16 00:13:25;;;;;;;40.22;36.85;;;9.00;94.00;;;;;;5092719;28;20242;-72
2022/03/16 00:15:52;;;;;;;40.60;37.00;;;9.10;93.60;;;;;;5092767;28;20289;-72
2022/03/16 00:18:20;;;;;;;39.58;36.20;;;9.20;93.40;;;;;;5092587;28;20194;-72
2022/03/16 00:20:48;;;;;;;41.20;37.70;;;9.20;93.00;;;;;;5092582;28;20752;-72
2022/03/16 00:23:16;;;;;;;41.20;37.45;;;9.10;93.50;;;;;;5092566;28;20581;-72
2022/03/16 00:25:43;;;;;;;42.25;38.47;;;9.10;93.80;;;;;;5092685;28;20203;-72
2022/03/16 00:28:10;;;;;;;41.95;38.20;;;9.10;93.70;;;;;;5092529;28;20228;-72
2022/03/16 00:30:37;;;;;;;41.85;38.05;;;9.00;94.00;;;;;;5092433;28;20223;-72
2022/03/16 00:33:04;;;;;;;44.33;40.47;;;9.00;94.20;;;;;;5092372;28;20238;-72
2022/03/16 00:35:31;;;;;;;43.03;39.22;;;9.00;94.10;;;;;;5092528;28;20205;-72
2022/03/16 00:38:00;;;;;;;41.75;38.05;;;9.00;94.40;;;;;;5092508;28;20202;-72
2022/03/16 00:40:26;;;;;;;43.60;39.65;;;9.00;94.40;;;;;;5092206;28;20210;-72
2022/03/16 00:42:53;;;;;;;44.08;40.22;;;9.00;94.10;;;;;;5092577;28;20763;-73
2022/03/16 00:45:20;;;;;;;44.50;40.70;;;8.90;94.70;;;;;;5092439;28;20195;-72
2022/03/16 00:47:47;;;;;;;43.30;39.47;;;9.00;94.60;;;;;;5092209;28;20230;-72
2022/03/16 00:50:14;;;;;;;44.55;40.33;;;9.00;94.40;;;;;;5092115;28;20287;-72
2022/03/16 00:52:41;;;;;;;45.28;41.10;;;8.80;94.80;;;;;;5092332;28;20234;-72
2022/03/16 00:55:09;;;;;;;45.58;41.28;;;8.80;95.30;;;;;;5092395;28;20287;-72
2022/03/16 00:57:36;;;;;;;46.22;42.05;;;8.80;95.30;;;;;;5092506;28;20210;-72
2022/03/16 01:00:05;;;;;;;45.58;41.17;;;8.90;95.10;;;;;;5092164;28;20196;-72
2022/03/16 01:02:32;;;;;;;45.25;41.20;;;8.90;94.70;;;;;;5092142;28;20757;-72
2022/03/16 01:04:59;;;;;;;46.97;42.70;;;8.80;95.20;;;;;;5092479;28;20230;-72
2022/03/16 01:07:26;;;;;;;48.35;43.70;;;8.80;95.10;;;;;;5095939;28;20299;-72
2022/03/16 01:09:54;;;;;;;44.25;40.25;;;8.70;95.70;;;;;;5095873;28;20240;-72
2022/03/16 01:12:22;;;;;;;47.45;42.92;;;8.80;95.60;;;;;;5095858;28;20322;-72
2022/03/16 01:14:49;;;;;;;49.72;44.53;;;8.80;95.50;;;;;;5095821;28;20200;-72
2022/03/16 01:17:16;;;;;;;49.83;44.88;;;8.90;95.20;;;;;;5095737;28;20226;-72
2022/03/16 01:19:43;;;;;;;50.05;45.05;;;9.00;94.90;;;;;;5095571;28;20672;-72
2022/03/16 01:22:10;;;;;;;47.80;43.13;;;9.10;94.70;;;;;;5095641;28;20222;-72
2022/03/16 01:24:37;;;;;;;51.40;46.35;;;9.00;94.40;;;;;;5095622;28;20196;-72
2022/03/16 01:27:04;;;;;;;49.90;44.95;;;9.00;94.60;;;;;;5095772;28;20658;-72
2022/03/16 01:29:32;;;;;;;47.42;42.90;;;9.10;94.50;;;;;;5095524;28;20203;-72
2022/03/16 01:31:59;;;;;;;48.28;43.60;;;9.20;93.70;;;;;;5095406;28;20226;-72
2022/03/16 01:34:26;;;;;;;49.50;44.75;;;9.10;93.40;;;;;;5095358;28;20197;-72
2022/03/16 01:36:53;;;;;;;48.15;43.55;;;9.10;93.80;;;;;;5095501;28;20193;-72
2022/03/16 01:39:20;;;;;;;51.60;46.33;;;9.10;93.80;;;;;;5095170;28;20206;-72
2022/03/16 01:41:47;;;;;;;50.72;45.72;;;9.20;93.60;;;;;;5095347;28;20214;-73
2022/03/16 01:44:14;;;;;;;49.58;44.78;;;9.10;93.50;;;;;;5095281;28;20202;-72
2022/03/16 01:46:42;;;;;;;51.63;46.38;;;9.10;93.60;;;;;;5095092;28;20205;-72
2022/03/16 01:49:09;;;;;;;50.00;44.92;;;9.20;93.30;;;;;;5094884;28;20204;-72
2022/03/16 01:51:37;;;;;;;49.33;44.45;;;9.30;93.20;;;;;;5095072;28;20326;-72
2022/03/16 01:54:04;;;;;;;50.60;45.72;;;9.30;93.00;;;;;;5095090;28;20276;-72
2022/03/16 01:56:31;;;;;;;47.22;42.75;;;9.30;93.00;;;;;;5095071;28;20661;-72
2022/03/16 01:58:58;;;;;;;49.88;45.08;;;9.30;93.00;;;;;;5094804;28;20666;-72
2022/03/16 02:01:25;;;;;;;51.70;46.55;;;9.30;93.00;;;;;;5094715;28;20197;-72
2022/03/16 02:03:53;;;;;;;52.97;47.60;;;9.30;93.20;;;;;;5094958;28;20198;-72
2022/03/16 02:06:20;;;;;;;52.17;46.97;;;9.40;92.90;;;;;;5094761;28;20250;-73
2022/03/16 02:08:47;;;;;;;51.63;46.40;;;9.40;92.90;;;;;;5094782;28;20202;-72
2022/03/16 02:11:14;;;;;;;52.20;46.88;;;9.40;92.80;;;;;;5094440;28;20227;-72
2022/03/16 02:13:41;;;;;;;51.65;46.55;;;9.40;92.80;;;;;;5094767;28;20202;-72
2022/03/16 02:16:10;;;;;;;50.30;45.30;;;9.50;92.60;;;;;;5094549;28;20622;-72
2022/03/16 02:18:37;;;;;;;51.20;46.40;;;9.50;92.20;;;;;;5094596;28;20211;-72
2022/03/16 02:21:08;;;;;;;51.47;46.28;;;9.40;92.40;;;;;;5094379;28;20226;-72
2022/03/16 02:23:36;;;;;;;53.75;48.03;;;9.40;92.60;;;;;;5094806;28;20198;-72
2022/03/16 02:26:03;;;;;;;51.65;46.50;;;9.40;92.60;;;;;;5094323;28;20196;-72
2022/03/16 02:28:30;;;;;;;52.88;47.83;;;9.40;92.60;;;;;;5094358;28;20195;-72
2022/03/16 02:30:59;;;;;;;53.42;47.97;;;9.50;92.90;;;;;;5094168;28;20201;-72
2022/03/16 02:33:26;;;;;;;55.03;49.60;;;9.50;93.20;;;;;;5094403;28;20583;-72
2022/03/16 02:35:53;;;;;;;54.03;48.30;;;9.50;93.40;;;;;;5094360;28;20447;-72
2022/03/16 02:38:20;;;;;;;54.25;48.47;;;9.50;93.70;;;;;;5094228;28;20208;-72
2022/03/16 02:40:49;;;;;;;50.85;45.70;;;9.50;93.60;;;;;;5093933;28;20287;-72
2022/03/16 02:43:16;;;;;;;53.22;47.80;;;9.50;93.30;;;;;;5094177;28;20223;-72
2022/03/16 02:45:42;;;;;;;53.45;48.25;;;9.40;93.30;;;;;;5094200;28;20197;-72
2022/03/16 02:48:09;;;;;;;53.20;47.85;;;9.40;93.20;;;;;;5093848;28;20208;-72
2022/03/16 02:50:36;;;;;;;55.20;49.50;;;9.40;93.20;;;;;;5093910;28;20297;-72
2022/03/16 02:53:04;;;;;;;51.83;46.78;;;9.40;93.00;;;;;;5093583;28;20678;-72
2022/03/16 02:55:32;;;;;;;52.25;47.00;;;9.40;93.10;;;;;;5093943;28;20202;-73
2022/03/16 02:58:00;;;;;;;50.42;45.63;;;9.40;93.00;;;;;;5093807;28;20199;-72
2022/03/16 03:00:27;;;;;;;51.72;46.70;;;9.40;93.10;;;;;;5093633;28;20219;-72
2022/03/16 03:02:54;;;;;;;53.85;48.30;;;9.40;92.90;;;;;;5093830;28;20647;-72
2022/03/16 03:05:21;;;;;;;58.05;52.03;;;9.30;92.80;;;;;;5093787;28;20211;-72
2022/03/16 03:07:48;;;;;;;55.75;49.95;;;9.20;93.30;;;;;;5093482;28;20211;-72
2022/03/16 03:10:15;;;;;;;57.83;50.63;;;9.30;93.30;;;;;;5093450;28;20202;-72
2022/03/16 03:12:42;;;;;;;60.20;51.67;;;9.30;93.30;;;;;;5093539;28;20317;-72
2022/03/16 03:15:13;;;;;;;57.78;51.30;;;9.30;93.40;;;;;;5093474;28;20662;-70
2022/03/16 03:17:41;;;;;;;56.45;49.70;;;9.10;93.50;;;;;;5093486;28;20203;-70
2022/03/16 03:20:09;;;;;;;62.90;53.83;;;9.10;93.80;;;;;;5093181;28;20670;-70
2022/03/16 03:22:36;;;;;;;57.50;50.45;;;9.10;93.80;;;;;;5093456;28;20215;-70
2022/03/16 03:25:04;;;;;;;60.13;53.60;;;9.10;93.90;;;;;;5093349;28;20211;-70
2022/03/16 03:27:32;;;;;;;63.15;53.50;;;9.10;93.80;;;;;;5093297;28;20581;-71
2022/03/16 03:29:59;;;;;;;66.97;54.25;;;9.10;94.00;;;;;;5092707;28;20245;-73
2022/03/16 03:32:28;;;;;;;68.20;55.92;;;9.20;93.40;;;;;;5093157;28;20229;-73
2022/03/16 03:34:55;;;;;;;61.85;52.58;;;9.20;93.40;;;;;;5093142;28;20277;-73
2022/03/16 03:37:25;;;;;;;64.50;53.58;;;9.10;93.60;;;;;;5093044;28;20200;-73
2022/03/16 03:39:52;;;;;;;70.47;55.13;;;9.00;94.20;;;;;;5092941;28;20207;-73
2022/03/16 03:42:19;;;;;;;65.57;55.20;;;9.00;94.30;;;;;;5093162;28;20227;-73
2022/03/16 03:44:45;;;;;;;62.30;53.45;;;9.10;94.30;;;;;;5093152;28;20192;-71
2022/03/16 03:47:13;;;;;;;62.28;52.88;;;9.10;94.30;;;;;;5092780;28;20287;-70
2022/03/16 03:49:42;;;;;;;63.03;53.63;;;9.10;94.40;;;;;;5092777;28;20195;-70
2022/03/16 03:52:10;;;;;;;63.92;54.63;;;9.20;93.60;;;;;;5092926;28;20212;-71
2022/03/16 03:54:37;;;;;;;65.35;54.70;;;9.30;93.50;;;;;;5092709;28;20197;-70
2022/03/16 03:57:05;;;;;;;63.33;54.28;;;9.20;93.40;;;;;;5092930;28;20199;-72
2022/03/16 03:59:32;;;;;;;66.20;53.10;;;9.10;93.70;;;;;;5092819;28;20566;-73
2022/03/16 04:01:59;;;;;;;58.60;51.70;;;9.10;93.80;;;;;;5092693;28;20731;-73
2022/03/16 04:04:26;;;;;;;58.53;52.17;;;9.10;93.90;;;;;;5092872;28;20192;-73
2022/03/16 04:06:54;;;;;;;61.72;52.92;;;9.00;94.20;;;;;;5092738;28;20663;-72
2022/03/16 04:09:21;;;;;;;61.63;54.47;;;9.00;94.40;;;;;;5092577;28;20257;-70
2022/03/16 04:11:48;;;;;;;61.47;54.35;;;9.10;94.20;;;;;;5092776;28;20697;-70
2022/03/16 04:14:16;;;;;;;61.00;54.40;;;9.00;94.40;;;;;;5092522;28;20227;-70
2022/03/16 04:16:43;;;;;;;60.15;52.97;;;9.00;94.30;;;;;;5092732;28;20199;-70
2022/03/16 04:19:10;;;;;;;65.43;55.53;;;9.00;94.50;;;;;;5092546;28;20665;-72
2022/03/16 04:21:36;;;;;;;60.65;52.28;;;9.10;94.40;;;;;;5092648;28;20727;-73
2022/03/16 04:24:06;;;;;;;59.20;52.75;;;9.10;94.40;;;;;;5092804;28;20289;-72
2022/03/16 04:26:33;;;;;;;62.25;55.55;;;9.10;94.50;;;;;;5092797;28;20199;-72
2022/03/16 04:29:00;;;;;;;59.90;53.50;;;9.10;94.40;;;;;;5092722;28;20820;-72
2022/03/16 04:31:26;;;;;;;64.03;54.22;;;9.30;93.70;;;;;;5092618;28;20714;-73
2022/03/16 04:33:53;;;;;;;59.15;52.65;;;9.30;93.40;;;;;;5092557;28;20211;-73
2022/03/16 04:36:20;;;;;;;63.22;55.38;;;9.30;93.00;;;;;;5092584;28;20204;-73
2022/03/16 04:38:47;;;;;;;62.53;54.13;;;9.30;92.90;;;;;;5092469;28;20196;-70
2022/03/16 04:41:15;;;;;;;63.72;56.72;;;9.20;93.60;;;;;;5094423;28;20197;-70
2022/03/16 04:43:42;;;;;;;65.63;56.00;;;9.10;93.80;;;;;;5096510;28;20276;-70
2022/03/16 04:46:09;;;;;;;65.63;57.70;;;9.00;94.20;;;;;;5096656;28;20227;-70
2022/03/16 04:48:36;;;;;;;67.75;54.97;;;9.10;94.10;;;;;;5096244;28;20286;-70
2022/03/16 04:51:03;;;;;;;60.03;52.22;;;9.20;93.50;;;;;;5096364;28;20253;-70
2022/03/16 04:53:30;;;;;;;66.22;56.28;;;9.20;93.20;;;;;;5096186;28;20581;-70
2022/03/16 04:55:57;;;;;;;69.68;59.80;;;9.10;94.00;;;;;;5096432;28;20565;-70
2022/03/16 04:58:25;;;;;;;66.05;57.67;;;9.10;93.60;;;;;;5096867;28;20278;-70
2022/03/16 05:00:52;;;;;;;64.15;56.35;;;9.10;93.80;;;;;;5096003;28;20192;-70
2022/03/16 05:03:19;;;;;;;63.42;56.20;;;9.00;94.50;;;;;;5096035;28;20221;-70
2022/03/16 05:05:47;;;;;;;71.47;59.05;;;8.90;94.80;;;;;;5095934;28;20223;-70
2022/03/16 05:08:13;;;;;;;69.85;58.38;;;8.80;95.20;;;;;;5095912;28;20570;-70
2022/03/16 05:10:40;;;;;;;72.15;58.45;;;8.70;95.50;;;;;;5095771;28;20286;-70
2022/03/16 05:13:07;;;;;;;67.28;57.22;;;8.70;95.70;;;;;;5095744;28;20222;-70
2022/03/16 05:15:36;;;;;;;65.63;57.40;;;8.70;95.70;;;;;;5095880;28;20564;-70
2022/03/16 05:18:03;;;;;;;70.75;58.15;;;8.70;95.90;;;;;;5095769;28;20196;-71
2022/03/16 05:20:29;;;;;;;70.90;58.70;;;8.60;96.10;;;;;;5095734;28;20287;-70
2022/03/16 05:22:56;;;;;;;72.15;57.90;;;8.70;96.20;;;;;;5095701;28;20217;-71
2022/03/16 05:25:26;;;;;;;73.72;58.65;;;8.70;96.00;;;;;;5095600;28;20670;-70
2022/03/16 05:27:54;;;;;;;73.10;59.45;;;8.80;95.90;;;;;;5095607;28;20655;-72
2022/03/16 05:30:23;;;;;;;66.72;57.00;;;8.70;96.00;;;;;;5095516;28;20200;-73
2022/03/16 05:32:54;;;;;;;72.00;59.20;;;8.80;95.90;;;;;;5095577;28;20227;-71
2022/03/16 05:35:21;;;;;;;65.50;58.35;;;8.80;95.70;;;;;;5095584;28;20288;-73
2022/03/16 05:37:48;;;;;;;70.70;56.70;;;8.80;95.90;;;;;;5095374;28;20283;-73
2022/03/16 05:40:15;;;;;;;70.20;59.60;;;8.80;95.90;;;;;;5095217;28;20201;-72
2022/03/16 05:42:42;;;;;;;70.78;59.67;;;8.80;95.90;;;;;;5095478;28;20211;-73
2022/03/16 05:45:10;;;;;;;71.40;55.47;;;9.00;95.40;;;;;;5095459;28;20198;-71
2022/03/16 05:47:37;;;;;;;72.32;56.03;;;8.90;95.50;;;;;;5095248;28;20780;-73
2022/03/16 05:50:07;;;;;;;70.30;55.22;;;8.90;95.10;;;;;;5094901;28;20200;-73
2022/03/16 05:52:34;;;;;;;68.88;56.28;;;9.00;95.30;;;;;;5094472;28;20227;-73
2022/03/16 05:55:01;;;;;;;69.07;57.45;;;9.00;95.20;;;;;;5095182;28;20679;-73
2022/03/16 05:57:28;;;;;;;70.22;56.58;;;8.90;95.80;;;;;;5095110;28;20197;-73
2022/03/16 05:59:55;;;;;;;67.32;53.78;;;8.90;95.70;;;;;;5094820;28;20629;-73
2022/03/16 06:02:22;;;;;;;65.30;57.63;;;8.90;95.80;;;;;;5094911;28;20304;-73
2022/03/16 06:04:49;;;;;;;67.95;57.85;;;9.00;95.70;;;;;;5094904;28;20275;-73
2022/03/16 06:07:17;;;;;;;69.82;56.28;;;9.00;95.10;;;;;;5094730;28;20562;-73
2022/03/16 06:09:44;;;;;;;71.43;58.63;;;9.00;95.40;;;;;;5094621;28;20227;-70
2022/03/16 06:12:12;;;;;;;71.00;59.03;;;8.90;95.90;;;;;;5094828;28;20273;-70
2022/03/16 06:14:39;;;;;;;67.90;57.97;;;8.90;96.10;;;;;;5094585;28;20241;-70
2022/03/16 06:17:05;;;;;;;71.07;57.28;;;9.00;95.90;;;;;;5094743;28;20203;-70
2022/03/16 06:19:32;;;;;;;73.00;57.33;;;9.10;95.60;;;;;;5094478;28;20412;-70
2022/03/16 06:22:00;;;;;;;75.13;56.88;;;9.20;95.40;;;;;;5094413;28;20219;-70
2022/03/16 06:24:28;;;;;;;72.47;59.42;;;9.20;95.00;;;;;;5094661;28;20283;-72
2022/03/16 06:26:55;;;;;;;72.75;58.70;;;9.20;95.00;;;;;;5094498;28;20196;-73
2022/03/16 06:29:22;;;;;;;69.47;56.78;;;9.20;95.00;;;;;;5094282;28;20235;-71
2022/03/16 06:31:49;;;;;;;78.10;62.10;;;9.20;95.00;;;;;;5094326;28;20754;-70
2022/03/16 06:34:16;;;;;;;69.60;58.05;;;9.20;95.20;;;;;;5094203;28;20222;-72
2022/03/16 06:36:43;;;;;;;66.40;56.08;;;9.20;95.30;;;;;;5094275;28;20199;-73
2022/03/16 06:39:09;;;;;;;68.00;55.78;;;9.30;95.00;;;;;;5094052;28;20252;-72
2022/03/16 06:41:38;;;;;;;70.65;57.05;;;9.30;94.80;;;;;;5094204;28;20225;-73
2022/03/16 06:44:05;;;;;;;68.13;57.78;;;9.30;94.70;;;;;;5094222;28;20202;-73
2022/03/16 06:46:32;;;;;;;65.00;56.03;;;9.30;95.10;;;;;;5094017;28;20195;-73
2022/03/16 06:48:59;;;;;;;73.15;59.92;;;9.30;94.90;;;;;;5093792;28;20302;-73
2022/03/16 06:51:26;;;;;;;68.68;58.50;;;9.30;94.90;;;;;;5093794;28;20205;-71
2022/03/16 06:53:52;;;;;;;70.55;60.60;;;9.30;94.90;;;;;;5093861;28;20227;-70
2022/03/16 06:56:19;;;;;;;70.32;56.80;;;9.30;94.70;;;;;;5093786;28;20676;-73
2022/03/16 06:58:48;;;;;;;72.25;57.55;;;9.40;94.90;;;;;;5093826;28;20654;-73
2022/03/16 07:01:15;;;;;;;69.05;57.42;;;9.50;94.40;;;;;;5093642;28;20574;-73
2022/03/16 07:03:43;;;;;;;73.07;55.78;;;9.40;94.10;;;;;;5093226;28;20197;-73
2022/03/16 07:06:10;;;;;;;71.43;57.97;;;9.50;94.10;;;;;;5093664;28;20292;-73
2022/03/16 07:08:37;;;;;;;66.77;56.10;;;9.50;93.90;;;;;;5093685;28;20462;-72
2022/03/16 07:11:04;;;;;;;69.57;56.73;;;9.60;93.80;;;;;;5093484;28;20534;-73
2022/03/16 07:13:31;;;;;;;67.10;55.25;;;9.70;93.50;;;;;;5093498;28;20482;-73
2022/03/16 07:15:59;;;;;;;65.97;54.88;;;9.60;93.80;;;;;;5093596;28;20202;-72
2022/03/16 07:18:26;;;;;;;70.83;58.43;;;9.80;93.50;;;;;;5093445;28;20274;-71
2022/03/16 07:20:53;;;;;;;60.70;54.03;;;9.70;93.40;;;;;;5093380;28;20452;-71
2022/03/16 07:23:20;;;;;;;69.43;57.40;;;9.70;93.10;;;;;;5093452;28;20570;-71
2022/03/16 07:25:48;;;;;;;66.63;54.90;;;9.80;93.10;;;;;;5093358;28;20451;-71
2022/03/16 07:28:17;;;;;;;69.37;54.10;;;9.90;92.60;;;;;;5093226;28;20450;-71
2022/03/16 07:30:44;;;;;;;68.00;58.30;;;9.80;92.90;;;;;;5093161;28;20816;-71
2022/03/16 07:33:13;;;;;;;70.67;54.17;;;9.80;93.30;;;;;;5093254;28;20551;-71
2022/03/16 07:35:41;;;;;;;66.03;55.70;;;9.80;93.30;;;;;;5093224;28;20447;-71
2022/03/16 07:38:09;;;;;;;70.80;57.40;;;9.80;93.10;;;;;;5093142;28;20460;-71
2022/03/16 07:40:36;;;;;;;66.30;53.77;;;9.80;93.10;;;;;;5092886;28;20450;-71
2022/03/16 07:43:04;;;;;;;74.53;57.07;;;10.00;93.10;;;;;;5093014;28;20963;-71
2022/03/16 07:45:31;;;;;;;64.83;55.73;;;9.90;92.60;;;;;;5093139;28;20534;-71
2022/03/16 07:47:58;;;;;;;71.10;55.33;;;9.80;92.90;;;;;;5092933;28;20460;-71
2022/03/16 07:50:27;;;;;;;64.30;54.63;;;9.80;93.00;;;;;;5092865;28;20529;-71
2022/03/16 07:52:54;;;;;;;63.20;55.23;;;9.80;93.10;;;;;;5092820;28;20697;-71
2022/03/16 07:55:21;;;;;;;62.40;53.30;;;9.80;92.90;;;;;;5092851;28;20484;-71
2022/03/16 07:57:48;;;;;;;57.05;50.38;;;9.90;93.00;;;;;;5092850;28;20460;-71
2022/03/16 08:00:16;;;;;;;55.30;48.13;;;9.90;90.60;;;;;;5092773;28;20231;-71
2022/03/16 08:02:44;;;;;;;55.53;49.45;;;9.80;90.70;;;;;;5092707;28;20481;-71
2022/03/16 08:05:12;;;;;;;55.08;49.03;;;10.00;89.50;;;;;;5092885;28;20194;-71
2022/03/16 08:07:41;;;;;;;52.83;47.08;;;10.00;89.00;;;;;;5092548;28;20661;-71
2022/03/16 08:10:09;;;;;;;54.25;48.50;;;9.90;89.00;;;;;;5092690;28;20208;-71
2022/03/16 08:12:37;;;;;;;53.22;47.63;;;9.90;88.90;;;;;;5092752;28;20223;-71
2022/03/16 08:15:04;;;;;;;54.05;48.15;;;9.90;88.50;;;;;;5095956;28;20223;-71
2022/03/16 08:17:31;;;;;;;55.85;49.80;;;9.90;88.40;;;;;;5099636;28;20197;-71
2022/03/16 08:19:58;;;;;;;53.28;47.60;;;9.90;88.00;;;;;;5099309;28;20243;-71
2022/03/16 08:22:26;;;;;;;52.75;47.30;;;9.70;88.70;;;;;;5099404;28;20282;-71
2022/03/16 08:24:55;;;;;;;53.15;47.45;;;9.60;89.30;;;;;;5099629;28;20196;-70
2022/03/16 08:27:23;;;;;;;54.90;49.30;;;9.60;89.10;;;;;;5099498;28;20204;-71
2022/03/16 08:29:50;;;;;;;55.67;49.60;;;9.60;88.90;;;;;;5099428;28;20649;-71
2022/03/16 08:32:17;;;;;;;51.05;46.00;;;9.60;88.50;;;;;;5099514;28;20770;-71
2022/03/16 08:34:43;;;;;;;49.40;44.33;;;9.70;88.10;;;;;;5099319;28;20223;-71
2022/03/16 08:37:11;;;;;;;52.70;47.38;;;9.70;87.90;;;;;;5099333;28;20624;-71
2022/03/16 08:39:38;;;;;;;50.53;45.25;;;9.70;88.50;;;;;;5099224;28;20200;-71
2022/03/16 08:42:07;;;;;;;50.53;45.33;;;9.70;88.80;;;;;;5099403;28;20632;-71
2022/03/16 08:44:34;;;;;;;53.50;47.87;;;9.60;89.10;;;;;;5099342;28;20622;-71
2022/03/16 08:47:01;;;;;;;54.25;47.42;;;9.70;89.10;;;;;;5099201;28;20445;-71
2022/03/16 08:49:29;;;;;;;55.90;50.50;;;9.80;88.70;;;;;;5098732;28;20675;-71
2022/03/16 08:51:56;;;;;;;53.00;47.57;;;10.00;87.80;;;;;;5099193;28;20482;-71
2022/03/16 08:54:23;;;;;;;54.47;48.87;;;10.10;86.90;;;;;;5099054;28;20475;-71
2022/03/16 08:56:50;;;;;;;52.43;46.97;;;10.00;87.80;;;;;;5099151;28;20476;-71
2022/03/16 08:59:20;;;;;;;54.10;48.37;;;10.20;87.70;;;;;;5098842;28;20446;-72
2022/03/16 09:01:47;;;;;;;51.27;45.90;;;10.20;87.30;;;;;;5099169;28;20465;-72
2022/03/16 09:04:14;;;;;;;52.57;47.33;;;10.30;87.10;;;;;;5099069;28;20458;-72
2022/03/16 09:06:41;;;;;;;50.57;45.57;;;10.40;86.60;;;;;;5098905;28;20458;-72
2022/03/16 09:09:08;;;;;;;50.67;45.40;;;10.30;87.00;;;;;;5099087;28;20529;-72
2022/03/16 09:11:35;;;;;;;51.50;46.47;;;10.50;86.10;;;;;;5099218;28;20844;-72
2022/03/16 09:14:02;;;;;;;48.80;44.07;;;10.60;85.40;;;;;;5098944;28;20479;-72
2022/03/16 09:16:30;;;;;;;52.07;46.43;;;10.80;85.10;;;;;;5098889;28;20449;-72
2022/03/16 09:18:57;;;;;;;50.70;45.70;;;10.90;84.40;;;;;;5098980;28;20462;-72
2022/03/16 09:21:25;;;;;;;50.70;46.10;;;10.70;84.70;;;;;;5098750;28;20557;-72
2022/03/16 09:23:53;;;;;;;50.73;45.63;;;10.60;85.80;;;;;;5098962;28;20488;-72
2022/03/16 09:26:21;;;;;;;51.60;47.00;;;10.70;85.80;;;;;;5096768;28;20458;-72
2022/03/16 09:28:48;;;;;;;47.50;43.20;;;10.80;85.80;;;;;;5095692;28;20452;-72
2022/03/16 09:31:15;;;;;;;49.20;44.50;;;10.90;85.60;;;;;;5095394;28;20943;-73
2022/03/16 09:33:44;;;;;;;50.97;45.73;;;10.90;85.40;;;;;;5095441;28;20522;-72
2022/03/16 09:36:10;;;;;;;51.07;46.20;;;10.80;85.50;;;;;;5095700;28;20456;-72
2022/03/16 09:38:38;;;;;;;48.83;44.20;;;11.00;85.50;;;;;;5095538;28;20453;-72
2022/03/16 09:41:05;;;;;;;49.43;44.93;;;11.00;85.30;;;;;;5095350;28;20455;-72
2022/03/16 09:43:36;;;;;;;50.50;45.50;;;11.00;85.00;;;;;;5095389;28;20478;-70
2022/03/16 09:46:09;;;;;;;51.30;46.33;;;11.10;84.50;;;;;;5095398;28;21060;-70
2022/03/16 09:48:37;;;;;;;52.83;47.43;;;11.40;83.30;;;;;;5095171;28;20925;-70
2022/03/16 09:51:07;;;;;;;52.17;47.20;;;11.30;83.10;;;;;;5094965;28;20553;-70
2022/03/16 09:53:34;;;;;;;52.07;46.97;;;11.30;84.10;;;;;;5095216;28;20880;-70
2022/03/16 09:56:00;;;;;;;51.50;46.40;;;11.40;83.60;;;;;;5095103;28;20561;-70
2022/03/16 09:58:28;;;;;;;50.03;44.83;;;11.50;83.40;;;;;;5095169;28;20455;-70
2022/03/16 10:00:55;;;;;;;50.17;45.57;;;11.70;82.50;;;;;;5095031;28;20464;-72
2022/03/16 10:03:23;;;;;;;49.80;45.30;;;11.80;82.40;;;;;;5094955;28;20476;-72
2022/03/16 10:05:51;;;;;;;46.33;42.13;;;12.00;82.20;;;;;;5095001;28;20842;-72
2022/03/16 10:08:28;;;;;;;47.03;42.47;;;11.90;81.50;;;;;;5094961;28;20490;-72
2022/03/16 10:13:53;;;;;;;45.67;41.57;;;12.10;80.40;;;;;;5095116;28;20494;-73
2022/03/16 10:16:20;;;;;;;43.97;40.33;;;11.90;80.20;;;;;;5094749;28;20448;-72
2022/03/16 10:18:54;;;;;;;47.93;43.93;;;12.00;80.40;;;;;;5094677;28;20458;-73
2022/03/16 10:21:22;;;;;;;44.73;40.87;;;12.10;80.20;;;;;;5094644;28;20463;-72
2022/03/16 10:23:51;;;;;;;45.80;41.70;;;12.20;79.50;;;;;;5094749;28;20468;-72
2022/03/16 10:26:21;;;;;;;44.83;41.03;;;12.30;78.80;;;;;;5094688;28;20822;-73
2022/03/16 10:28:48;;;;;;;44.70;40.73;;;12.50;77.70;;;;;;5094737;28;20874;-72
2022/03/16 10:31:18;;;;;;;42.90;39.50;;;12.70;77.20;;;;;;5094469;28;20525;-73
2022/03/16 10:33:47;;;;;;;43.70;40.00;;;12.70;76.30;;;;;;5094579;28;20981;-73
2022/03/16 10:36:15;;;;;;;42.93;39.27;;;12.70;76.50;;;;;;5094512;28;20920;-73
2022/03/16 10:38:44;;;;;;;43.53;39.87;;;13.00;75.50;;;;;;5093315;28;20450;-73
2022/03/16 10:46:52;;;;;;;44.97;41.07;;;13.50;72.70;;;;;;5094496;28;20437;-72
2022/03/16 10:49:20;;;;;;;43.43;39.70;;;13.70;72.90;;;;;;5093762;28;20893;-73
2022/03/16 10:51:47;;;;;;;42.47;38.97;;;13.90;72.40;;;;;;5094030;28;20843;-73
2022/03/16 10:54:16;;;;;;;45.00;41.30;;;14.20;72.50;;;;;;5093931;28;20451;-73
2022/03/16 10:56:46;;;;;;;43.30;39.73;;;14.40;71.10;;;;;;5094129;28;20445;-73
2022/03/16 10:59:13;;;;;;;42.07;38.47;;;14.50;70.50;;;;;;5093914;28;20535;-73
2022/03/16 11:01:41;;;;;;;43.80;40.20;;;14.70;69.20;;;;;;5093999;28;20476;-72
2022/03/16 11:04:09;;;;;;;43.20;39.53;;;14.30;69.70;;;;;;5094023;28;20448;-73
2022/03/16 11:06:36;;;;;;;44.40;40.90;;;14.20;70.60;;;;;;5093998;28;20864;-73
2022/03/16 11:09:04;;;;;;;42.23;38.67;;;14.00;71.20;;;;;;5094049;28;20843;-72
2022/03/16 11:14:21;;;;;;;42.30;38.87;;;14.30;70.80;;;;;;5076575;28;20861;-73
2022/03/16 11:16:48;;;;;;;45.47;41.53;;;14.70;69.50;;;;;;5094548;28;20457;-72
2022/03/16 11:19:18;;;;;;;41.30;37.97;;;14.80;68.60;;;;;;5097172;28;20446;-72
2022/03/16 11:21:50;;;;;;;43.43;39.93;;;15.00;67.80;;;;;;5101494;28;20540;-72
2022/03/16 11:24:25;;;;;;;41.63;38.33;;;14.90;68.10;;;;;;5101418;28;20539;-72
2022/03/16 11:27:12;;;;;;;43.60;40.20;;;14.60;68.80;;;;;;5101870;28;20532;-72
2022/03/16 11:30:13;;;;;;;41.43;37.80;;;14.60;69.30;;;;;;5101010;28;20480;-72
2022/03/16 11:32:42;;;;;;;44.13;40.60;;;14.70;69.60;;;;;;5064797;28;20487;-72
2022/03/16 11:35:12;;;;;;;42.67;38.80;;;14.90;68.60;;;;;;5100237;28;20481;-72
2022/03/16 11:37:43;;;;;;;41.77;38.40;;;15.00;67.60;;;;;;5093856;28;20457;-72
2022/03/16 11:40:12;;;;;;;42.50;39.13;;;15.10;68.10;;;;;;5093255;28;20458;-73
2022/03/16 11:42:44;;;;;;;39.90;36.90;;;15.20;68.50;;;;;;5093264;28;20474;-73
2022/03/16 11:45:37;;;;;;;45.50;41.80;;;15.30;67.20;;;;;;5093764;28;20454;-72
2022/03/16 11:48:48;;;;;;;42.37;38.93;;;15.10;67.90;;;;;;5093459;28;20531;-72
2022/03/16 11:51:25;;;;;;;42.83;39.50;;;15.10;68.70;;;;;;5077827;28;20540;-73
2022/03/16 11:54:12;;;;;;;41.93;38.63;;;15.10;68.60;;;;;;5092952;28;20469;-73
2022/03/16 11:56:45;;;;;;;42.13;38.83;;;15.30;68.50;;;;;;5093103;28;20500;-73
2022/03/16 11:59:40;;;;;;;42.33;38.97;;;15.50;67.90;;;;;;5092836;28;20456;-73
2022/03/16 12:02:25;;;;;;;40.07;36.97;;;15.80;67.70;;;;;;5093077;28;20564;-72
2022/03/16 12:05:01;;;;;;;41.53;38.43;;;15.80;67.90;;;;;;5093131;28;20456;-73
2022/03/16 12:07:30;;;;;;;40.17;37.07;;;16.00;67.30;;;;;;5092690;28;20461;-70
2022/03/16 12:10:03;;;;;;;40.30;37.30;;;16.10;67.30;;;;;;5092885;28;20458;-70
2022/03/16 12:15:30;;;;;;;39.90;36.90;;;16.10;66.20;;;;;;5092896;28;20882;-71
2022/03/16 12:18:34;;;;;;;41.27;37.90;;;15.80;67.30;;;;;;5092924;28;20500;-70
2022/03/16 12:21:14;;;;;;;43.40;40.00;;;15.70;66.30;;;;;;5092864;28;20480;-70
2022/03/16 12:28:55;;;;;;;42.70;39.40;;;15.30;67.80;;;;;;5071663;28;20440;-70
2022/03/16 12:29:31;;;;;;;45.03;41.50;;;15.40;68.60;;;;;;5092576;28;20446;-71
2022/03/16 12:32:00;;;;;;;43.20;39.23;;;15.30;68.10;;;;;;5092880;28;20472;-70
2022/03/16 12:34:29;;;;;;;43.53;40.00;;;15.30;68.50;;;;;;5092579;28;20450;-71
2022/03/16 12:36:59;;;;;;;41.43;38.33;;;15.40;67.90;;;;;;5092639;28;20495;-72
2022/03/16 12:39:27;;;;;;;42.47;39.07;;;15.50;67.70;;;;;;5092605;28;20808;-72
2022/03/16 12:44:45;;;;;;;42.60;39.50;;;15.50;68.00;;;;;;5092632;28;20436;-73
2022/03/16 12:47:22;;;;;;;41.50;38.30;;;15.40;67.30;;;;;;5092486;28;20449;-73
2022/03/16 12:49:50;;;;;;;44.47;40.77;;;15.30;67.80;;;;;;5092289;28;20503;-73
2022/03/16 12:52:18;;;;;;;43.30;39.83;;;15.20;68.00;;;;;;5092373;28;20531;-73
2022/03/16 12:54:45;;;;;;;43.87;40.37;;;15.40;67.50;;;;;;5092074;28;20866;-73
2022/03/16 12:57:15;;;;;;;42.03;38.80;;;15.60;67.20;;;;;;5092332;28;20460;-73
2022/03/16 12:59:47;;;;;;;41.17;37.97;;;15.60;66.90;;;;;;5092046;28;20460;-73